Time;durP1;ratioP1;P1;durP2;ratioP2;P2;SDS_P1;SDS_P2;PMS_P1;PMS_P2;Temp;Humidity;BMP_temperature;BMP_pressure;BME280_temperature;BME280_humidity;BME280_pressure;Samples;Min_cycle;Max_cycle;Signal;HPM_P1;HPM_P2
2023/09/16 00:01:46;;;;;;;;;;;;;;;24.77;56.69;101147.88;7397706;19;1550;-37
2023/09/16 00:04:15;;;;;;;;;;;;;;;24.73;57.05;101154.66;7397873;19;1868;-37
2023/09/16 00:06:43;;;;;;;;;;;;;;;24.71;56.99;101157.53;7395661;19;1569;-36
2023/09/16 00:09:11;;;;;;;;;;;;;;;24.66;57.14;101154.47;7397962;19;1580;-37
2023/09/16 00:11:39;;;;;;;;;;;;;;;24.68;57.07;101182.19;7396477;19;1458;-37
2023/09/16 00:14:08;;;;;;;;;;;;;;;24.64;57.09;101156.47;7397472;19;1834;-37
2023/09/16 00:16:40;;;;;;;;;;;;;;;24.61;57.17;101194.66;7397279;19;1716;-36
2023/09/16 00:19:09;;;;;;;;;;;;;;;24.62;57.31;101180.13;7397284;19;1722;-36
2023/09/16 00:21:37;;;;;;;;;;;;;;;24.67;57.12;101187.75;7396521;19;1724;-36
2023/09/16 00:24:05;;;;;;;;;;;;;;;24.76;56.93;101178.66;7397941;19;1733;-37
2023/09/16 00:26:35;;;;;;;;;;;;;;;24.70;57.23;101187.44;7396657;19;1517;-36
2023/09/16 00:29:03;;;;;;;;;;;;;;;24.67;57.08;101176.94;7397080;19;1937;-36
2023/09/16 00:31:33;;;;;;;;;;;;;;;24.64;57.11;101182.69;7396873;19;1544;-36
2023/09/16 00:34:04;;;;;;;;;;;;;;;24.67;57.19;101199.44;7396993;19;1745;-37
2023/09/16 00:36:32;;;;;;;;;;;;;;;24.71;56.94;101195.41;7395451;19;1900;-36
2023/09/16 00:39:00;;;;;;;;;;;;;;;24.69;57.42;101212.78;7394467;19;1834;-37
2023/09/16 00:41:28;;;;;;;;;;;;;;;24.63;57.55;101195.38;7397289;19;1830;-37
2023/09/16 00:43:57;;;;;;;;;;;;;;;24.64;57.55;101202.47;7396086;19;1846;-36
2023/09/16 00:46:26;;;;;;;;;;;;;;;24.70;57.16;101199.09;7395749;19;1829;-36
2023/09/16 00:48:54;;;;;;;;;;;;;;;24.67;57.21;101176.94;7395738;19;1676;-37
2023/09/16 00:51:25;;;;;;;;;;;;;;;24.58;57.28;101198.53;7393316;19;1734;-37
2023/09/16 00:53:54;;;;;;;;;;;;;;;24.57;57.40;101199.56;7394719;19;1616;-37
2023/09/16 00:56:23;;;;;;;;;;;;;;;24.60;57.33;101188.41;7391957;19;1874;-36
2023/09/16 00:58:51;;;;;;;;;;;;;;;24.63;57.31;101180.97;7395453;19;1655;-37
2023/09/16 01:01:19;;;;;;;;;;;;;;;24.66;57.40;101188.78;7395944;19;1332;-37
2023/09/16 01:03:48;;;;;;;;;;;;;;;24.65;57.21;101179.81;7393937;19;1416;-37
2023/09/16 01:06:19;;;;;;;;;;;;;;;24.67;57.04;101191.31;7394843;19;1451;-41
2023/09/16 01:08:50;;;;;;;;;;;;;;;24.68;57.12;101201.13;7394868;19;1478;-36
2023/09/16 01:11:18;;;;;;;;;;;;;;;24.67;57.37;101195.88;7395549;19;1281;-37
2023/09/16 01:13:47;;;;;;;;;;;;;;;24.69;57.48;101207.38;7393759;19;1765;-37
2023/09/16 01:16:19;;;;;;;;;;;;;;;24.65;57.22;101195.19;7393233;19;1841;-37
2023/09/16 01:18:50;;;;;;;;;;;;;;;24.73;57.09;101206.03;7394957;19;1617;-37
2023/09/16 01:21:20;;;;;;;;;;;;;;;24.73;57.33;101216.84;7394910;19;1795;-36
2023/09/16 01:24:12;;;;;;;;;;;;;;;24.71;57.34;101211.63;7393226;19;1901;-37
2023/09/16 01:26:43;;;;;;;;;;;;;;;24.70;57.01;101225.31;7394718;19;1551;-37
2023/09/16 01:29:11;;;;;;;;;;;;;;;24.69;57.00;101212.78;7394841;19;1888;-36
2023/09/16 01:31:40;;;;;;;;;;;;;;;24.68;57.47;101216.50;7394819;19;1564;-37
2023/09/16 01:34:12;;;;;;;;;;;;;;;24.66;57.35;101219.38;7393842;19;1965;-37
2023/09/16 01:36:41;;;;;;;;;;;;;;;24.67;57.10;101233.72;7392686;19;1874;-37
2023/09/16 01:39:10;;;;;;;;;;;;;;;24.70;57.17;101220.72;7393862;19;1565;-36
2023/09/16 01:41:39;;;;;;;;;;;;;;;24.79;56.97;101237.88;7393877;19;1538;-37
2023/09/16 01:44:10;;;;;;;;;;;;;;;24.82;57.00;101237.53;7394709;19;1781;-36
2023/09/16 01:46:39;;;;;;;;;;;;;;;24.76;56.73;101236.31;7394558;19;1540;-37
2023/09/16 01:49:07;;;;;;;;;;;;;;;24.80;56.87;101231.44;7395162;19;1668;-37
2023/09/16 01:51:35;;;;;;;;;;;;;;;24.73;57.06;101250.19;7399987;19;1812;-36
2023/09/16 01:54:04;;;;;;;;;;;;;;;24.75;57.16;101233.75;7402435;19;1644;-36
2023/09/16 01:56:32;;;;;;;;;;;;;;;24.78;57.02;101249.69;7399044;19;1953;-37
2023/09/16 01:59:00;;;;;;;;;;;;;;;24.78;57.14;101233.44;7401186;19;1466;-36
2023/09/16 02:01:31;;;;;;;;;;;;;;;24.78;56.91;101244.28;7401921;19;1279;-37
2023/09/16 02:03:59;;;;;;;;;;;;;;;24.77;57.00;101237.16;7401446;19;1820;-36
2023/09/16 02:06:28;;;;;;;;;;;;;;;24.78;56.91;101238.84;7400742;19;1651;-37
2023/09/16 02:08:56;;;;;;;;;;;;;;;24.82;56.99;101251.03;7402876;19;1724;-36
2023/09/16 02:11:24;;;;;;;;;;;;;;;24.79;57.32;101251.38;7401336;19;1580;-37
2023/09/16 02:13:52;;;;;;;;;;;;;;;24.85;56.93;101255.28;7401226;19;1807;-37
2023/09/16 02:16:21;;;;;;;;;;;;;;;24.91;56.71;101254.63;7399375;19;1859;-37
2023/09/16 02:18:52;;;;;;;;;;;;;;;24.92;56.93;101261.75;7401331;19;1753;-37
2023/09/16 02:21:21;;;;;;;;;;;;;;;24.91;56.76;101260.03;7401827;19;1791;-37
2023/09/16 02:23:49;;;;;;;;;;;;;;;24.87;56.86;101256.81;7401108;19;1568;-37
2023/09/16 02:26:18;;;;;;;;;;;;;;;24.87;56.71;101251.41;7400474;19;1679;-37
2023/09/16 02:28:46;;;;;;;;;;;;;;;24.88;57.08;101261.22;7401160;19;1607;-36
2023/09/16 02:31:15;;;;;;;;;;;;;;;24.39;56.99;101177.13;7401032;19;2105;-37
2023/09/16 02:33:43;;;;;;;;;;;;;;;24.91;57.16;101266.31;7400625;19;1550;-36
2023/09/16 02:36:14;;;;;;;;;;;;;;;24.91;57.31;101260.91;7399760;19;1875;-37
2023/09/16 02:38:43;;;;;;;;;;;;;;;24.87;57.32;101272.19;7400000;19;1947;-37
2023/09/16 02:41:15;;;;;;;;;;;;;;;24.89;57.80;101275.59;7398760;19;1843;-37
2023/09/16 02:43:43;;;;;;;;;;;;;;;24.79;58.53;101267.63;7400300;19;1542;-37
2023/09/16 02:46:11;;;;;;;;;;;;;;;24.74;58.69;101278.06;7399218;19;1642;-36
2023/09/16 02:48:39;;;;;;;;;;;;;;;24.71;58.91;101267.56;7400065;19;1657;-37
2023/09/16 02:51:09;;;;;;;;;;;;;;;24.72;58.63;101255.75;7401191;19;1846;-37
2023/09/16 02:53:41;;;;;;;;;;;;;;;24.69;58.73;101256.91;7399885;19;1725;-37
2023/09/16 02:56:09;;;;;;;;;;;;;;;24.72;58.67;101283.63;7397198;19;1864;-36
2023/09/16 02:58:38;;;;;;;;;;;;;;;24.69;59.05;101289.38;7400308;19;1815;-36
2023/09/16 03:01:10;;;;;;;;;;;;;;;24.69;58.92;101283.97;7398592;19;1939;-36
2023/09/16 03:03:38;;;;;;;;;;;;;;;24.68;59.04;101270.59;7399542;19;1695;-36
2023/09/16 03:06:07;;;;;;;;;;;;;;;24.71;59.19;101267.56;7399266;19;1867;-36
2023/09/16 03:08:35;;;;;;;;;;;;;;;24.73;59.25;101262.81;7400254;19;1847;-36
2023/09/16 03:11:07;;;;;;;;;;;;;;;24.71;58.73;101254.91;7398507;19;1871;-37
2023/09/16 03:13:36;;;;;;;;;;;;;;;24.65;58.84;101254.69;7399730;19;1730;-36
2023/09/16 03:16:20;;;;;;;;;;;;;;;24.65;58.76;101260.09;7397462;19;1854;-36
2023/09/16 03:18:49;;;;;;;;;;;;;;;24.55;58.84;101239.44;7398635;19;1416;-36
2023/09/16 03:21:18;;;;;;;;;;;;;;;24.59;58.86;101240.81;7398176;19;1532;-36
2023/09/16 03:23:47;;;;;;;;;;;;;;;24.59;59.00;101237.22;7395630;19;2520;-37
2023/09/16 03:26:18;;;;;;;;;;;;;;;24.56;58.94;101248.38;7397402;19;1446;-37
2023/09/16 03:28:47;;;;;;;;;;;;;;;24.61;58.99;101244.19;7398163;19;1979;-36
2023/09/16 03:31:16;;;;;;;;;;;;;;;24.61;58.72;101248.72;7395930;19;1967;-36
2023/09/16 03:33:44;;;;;;;;;;;;;;;24.64;58.76;101237.63;7399098;19;1550;-36
2023/09/16 03:36:13;;;;;;;;;;;;;;;24.61;58.91;101241.50;7396093;19;1838;-36
2023/09/16 03:38:47;;;;;;;;;;;;;;;24.65;58.64;101249.25;7397094;19;2229;-36
2023/09/16 03:41:18;;;;;;;;;;;;;;;24.66;58.82;101241.00;7397057;19;1569;-36
2023/09/16 03:43:46;;;;;;;;;;;;;;;24.69;58.78;101246.09;7398575;19;1626;-36
2023/09/16 03:46:14;;;;;;;;;;;;;;;24.72;58.90;101247.63;7397280;19;1605;-36
2023/09/16 03:48:43;;;;;;;;;;;;;;;24.74;58.82;101249.16;7397855;19;1824;-36
2023/09/16 03:51:11;;;;;;;;;;;;;;;24.68;58.64;101252.50;7397350;19;1891;-36
2023/09/16 03:53:39;;;;;;;;;;;;;;;24.61;58.79;101233.38;7397684;19;1476;-36
2023/09/16 03:56:08;;;;;;;;;;;;;;;24.55;58.90;101241.28;7395869;19;1849;-36
2023/09/16 03:58:39;;;;;;;;;;;;;;;24.61;58.80;101244.19;7397845;19;1931;-36
2023/09/16 04:01:07;;;;;;;;;;;;;;;24.54;58.96;101242.28;7396736;19;1960;-36
2023/09/16 04:03:36;;;;;;;;;;;;;;;24.53;59.08;101237.88;7398087;19;1724;-36
2023/09/16 04:06:04;;;;;;;;;;;;;;;24.48;59.12;101254.56;7398233;19;1478;-36
2023/09/16 04:08:33;;;;;;;;;;;;;;;24.43;59.12;101246.06;7397847;19;1510;-36
2023/09/16 04:11:04;;;;;;;;;;;;;;;24.50;59.12;101257.97;7394365;19;1969;-36
2023/09/16 04:13:33;;;;;;;;;;;;;;;24.46;59.31;101278.19;7395395;19;1538;-36
2023/09/16 04:16:04;;;;;;;;;;;;;;;24.40;59.47;101279.69;7396944;19;1830;-36
2023/09/16 04:18:34;;;;;;;;;;;;;;;24.48;59.15;101275.34;7397029;19;1510;-36
2023/09/16 04:21:02;;;;;;;;;;;;;;;24.45;59.09;101276.50;7396165;19;2235;-36
2023/09/16 04:23:31;;;;;;;;;;;;;;;24.52;59.09;101288.41;7396164;19;1922;-36
2023/09/16 04:26:00;;;;;;;;;;;;;;;24.57;58.99;101290.63;7393302;19;1369;-36
2023/09/16 04:28:28;;;;;;;;;;;;;;;24.63;58.92;101289.16;7395766;19;1402;-36
2023/09/16 04:30:57;;;;;;;;;;;;;;;24.58;59.21;101290.47;7396685;19;1837;-36
2023/09/16 04:33:27;;;;;;;;;;;;;;;24.46;59.18;101293.59;7396922;19;1507;-36
2023/09/16 04:35:56;;;;;;;;;;;;;;;24.61;58.99;101298.28;7395323;19;1881;-36
2023/09/16 04:38:24;;;;;;;;;;;;;;;24.46;59.10;101289.03;7395840;19;1499;-36
2023/09/16 04:40:52;;;;;;;;;;;;;;;24.50;59.18;101300.38;7394673;19;1486;-36
2023/09/16 04:43:21;;;;;;;;;;;;;;;24.42;59.71;101303.88;7395319;19;1490;-36
2023/09/16 04:45:49;;;;;;;;;;;;;;;24.57;59.27;101304.16;7394862;19;1469;-36
2023/09/16 04:48:22;;;;;;;;;;;;;;;24.60;59.08;101295.72;7395739;19;1962;-36
2023/09/16 04:50:53;;;;;;;;;;;;;;;24.54;59.03;101297.22;7395433;19;1516;-36
2023/09/16 04:53:21;;;;;;;;;;;;;;;24.52;59.47;101307.34;7394992;19;1890;-36
2023/09/16 04:55:49;;;;;;;;;;;;;;;24.53;59.31;101322.56;7395031;19;1849;-36
2023/09/16 04:58:19;;;;;;;;;;;;;;;24.58;59.04;101309.41;7396520;19;1621;-36
2023/09/16 05:00:49;;;;;;;;;;;;;;;24.74;58.77;101305.09;7396287;19;1385;-36
2023/09/16 05:03:18;;;;;;;;;;;;;;;24.76;58.29;101306.63;7393331;19;1725;-36
2023/09/16 05:05:48;;;;;;;;;;;;;;;24.73;58.58;101322.31;7395157;19;1588;-36
2023/09/16 05:08:19;;;;;;;;;;;;;;;24.70;58.71;101309.97;7392082;19;1541;-36
2023/09/16 05:10:47;;;;;;;;;;;;;;;24.72;58.63;101304.41;7392706;19;1514;-36
2023/09/16 05:13:15;;;;;;;;;;;;;;;24.76;58.46;101312.03;7393455;19;1424;-36
2023/09/16 05:15:44;;;;;;;;;;;;;;;24.82;58.28;101313.25;7394837;19;1537;-36
2023/09/16 05:18:12;;;;;;;;;;;;;;;24.76;58.75;101314.75;7391287;19;1850;-37
2023/09/16 05:20:40;;;;;;;;;;;;;;;24.67;58.74;101333.78;7393277;19;1682;-37
2023/09/16 05:23:08;;;;;;;;;;;;;;;24.76;58.40;101316.63;7393171;19;1392;-37
2023/09/16 05:25:46;;;;;;;;;;;;;;;24.72;58.69;101313.38;7400210;19;1357;-37
2023/09/16 05:28:14;;;;;;;;;;;;;;;24.75;58.71;101336.53;7400925;19;1502;-37
2023/09/16 05:30:43;;;;;;;;;;;;;;;24.78;58.64;101330.81;7399308;19;1623;-37
2023/09/16 05:33:12;;;;;;;;;;;;;;;24.86;58.22;101322.75;7401077;19;1438;-37
2023/09/16 05:35:40;;;;;;;;;;;;;;;24.84;58.55;101335.59;7399644;19;1395;-37
2023/09/16 05:38:09;;;;;;;;;;;;;;;24.72;59.17;101342.28;7396707;19;1875;-37
2023/09/16 05:40:40;;;;;;;;;;;;;;;24.84;58.66;101349.13;7401229;19;1503;-37
2023/09/16 05:43:08;;;;;;;;;;;;;;;24.89;58.65;101343.22;7398892;19;1799;-44
2023/09/16 05:45:36;;;;;;;;;;;;;;;24.84;59.06;101346.41;7397933;19;1849;-43
2023/09/16 05:48:05;;;;;;;;;;;;;;;24.94;58.16;101352.56;7398003;19;1550;-44
2023/09/16 05:50:33;;;;;;;;;;;;;;;25.01;57.76;101350.91;7400453;19;1546;-42
2023/09/16 05:53:01;;;;;;;;;;;;;;;24.93;58.30;101356.28;7400448;19;1602;-44
2023/09/16 05:55:30;;;;;;;;;;;;;;;24.96;58.59;101353.22;7397447;19;1468;-45
2023/09/16 05:58:01;;;;;;;;;;;;;;;24.99;58.59;101355.63;7383421;19;1845;-46
2023/09/16 06:00:29;;;;;;;;;;;;;;;24.91;58.67;101342.06;7399418;19;1355;-46
2023/09/16 06:02:57;;;;;;;;;;;;;;;25.00;58.11;101357.31;7402856;19;1609;-46
2023/09/16 06:05:29;;;;;;;;;;;;;;;25.00;58.49;101353.78;7399885;19;1644;-46
2023/09/16 06:07:57;;;;;;;;;;;;;;;25.05;58.31;101353.28;7400585;19;1611;-46
2023/09/16 06:10:26;;;;;;;;;;;;;;;25.08;58.43;101361.09;7401695;19;1819;-45
2023/09/16 06:12:54;;;;;;;;;;;;;;;24.95;58.62;101356.97;7400864;19;1384;-46
2023/09/16 06:15:25;;;;;;;;;;;;;;;25.10;58.13;101364.47;7400228;19;1751;-46
2023/09/16 06:17:53;;;;;;;;;;;;;;;25.01;58.52;101364.44;7397538;19;1852;-45
2023/09/16 06:20:21;;;;;;;;;;;;;;;25.04;58.48;101371.38;7400569;19;1475;-46
2023/09/16 06:22:50;;;;;;;;;;;;;;;24.85;58.78;101367.06;7400330;19;1562;-45
2023/09/16 06:25:18;;;;;;;;;;;;;;;24.80;59.32;101377.50;7400398;19;1541;-45
2023/09/16 06:27:46;;;;;;;;;;;;;;;25.02;58.70;101365.28;7400032;19;1403;-46
2023/09/16 06:30:15;;;;;;;;;;;;;;;25.14;58.48;101368.56;7399564;19;1479;-46
2023/09/16 06:32:46;;;;;;;;;;;;;;;24.92;58.98;101375.38;7398314;19;1645;-46
2023/09/16 06:35:14;;;;;;;;;;;;;;;24.82;59.38;101383.59;7400138;19;1439;-46
2023/09/16 06:37:43;;;;;;;;;;;;;;;25.11;58.47;101390.50;7396415;19;1841;-46
2023/09/16 06:40:12;;;;;;;;;;;;;;;25.13;58.48;101404.75;7399833;19;1579;-46
2023/09/16 06:42:40;;;;;;;;;;;;;;;25.11;58.59;101395.94;7399372;19;1850;-43
2023/09/16 06:45:09;;;;;;;;;;;;;;;25.21;58.49;101399.38;7397004;19;1806;-44
2023/09/16 06:47:37;;;;;;;;;;;;;;;25.22;58.18;101409.22;7398953;19;1788;-43
2023/09/16 06:50:08;;;;;;;;;;;;;;;25.24;58.24;101399.09;7400881;19;2058;-43
2023/09/16 06:52:37;;;;;;;;;;;;;;;25.17;58.12;101401.56;7399610;19;1647;-42
2023/09/16 06:55:05;;;;;;;;;;;;;;;25.24;58.24;101407.19;7398511;19;1531;-44
2023/09/16 06:57:34;;;;;;;;;;;;;;;25.19;58.35;101414.94;7380836;19;1849;-43
2023/09/16 07:00:02;;;;;;;;;;;;;;;25.13;58.27;101402.91;7397594;19;1835;-44
2023/09/16 07:02:30;;;;;;;;;;;;;;;24.96;58.89;101410.06;7399007;19;1558;-43
2023/09/16 07:04:58;;;;;;;;;;;;;;;24.97;58.96;101409.06;7398555;19;1474;-44
2023/09/16 07:07:29;;;;;;;;;;;;;;;24.97;58.84;101398.25;7396992;19;1532;-43
2023/09/16 07:09:58;;;;;;;;;;;;;;;25.12;58.43;101413.88;7396598;19;1406;-43
2023/09/16 07:12:26;;;;;;;;;;;;;;;25.05;58.83;101418.22;7395926;19;1585;-43
2023/09/16 07:14:55;;;;;;;;;;;;;;;25.10;58.71;101413.19;7398230;19;1535;-44
2023/09/16 07:17:23;;;;;;;;;;;;;;;25.04;59.00;101411.97;7396970;19;1855;-43
2023/09/16 07:19:51;;;;;;;;;;;;;;;25.08;58.67;101424.16;7397408;19;1435;-44
2023/09/16 07:22:20;;;;;;;;;;;;;;;25.02;58.99;101417.53;7395982;19;1468;-44
2023/09/16 07:24:51;;;;;;;;;;;;;;;25.12;58.69;101422.00;7400476;19;1377;-43
2023/09/16 07:27:20;;;;;;;;;;;;;;;25.06;58.49;101419.94;7398941;19;1188;-44
2023/09/16 07:29:48;;;;;;;;;;;;;;;25.09;58.89;101425.00;7398554;19;1946;-43
2023/09/16 07:32:16;;;;;;;;;;;;;;;25.09;58.89;101441.25;7397776;19;1511;-43
2023/09/16 07:34:44;;;;;;;;;;;;;;;24.94;59.28;101441.84;7395929;19;1572;-44
2023/09/16 07:37:14;;;;;;;;;;;;;;;25.01;59.18;101445.63;7394901;19;1866;-43
2023/09/16 07:39:44;;;;;;;;;;;;;;;25.14;58.65;101428.09;7394861;19;1641;-43
2023/09/16 07:42:15;;;;;;;;;;;;;;;25.17;58.59;101438.63;7393100;19;1484;-44
2023/09/16 07:44:43;;;;;;;;;;;;;;;25.00;59.27;101443.91;7392237;19;1425;-43
2023/09/16 07:47:12;;;;;;;;;;;;;;;24.87;59.72;101443.50;7393337;19;1522;-43
2023/09/16 07:49:40;;;;;;;;;;;;;;;25.08;58.92;101428.75;7395526;19;1596;-44
2023/09/16 07:52:08;;;;;;;;;;;;;;;25.10;59.13;101437.53;7398478;19;1536;-44
2023/09/16 07:54:36;;;;;;;;;;;;;;;25.16;60.30;101431.50;7397949;19;1839;-44
2023/09/16 07:57:05;;;;;;;;;;;;;;;24.99;60.47;101436.81;7383410;19;1863;-44
2023/09/16 07:59:36;;;;;;;;;;;;;;;24.95;60.56;101427.31;7398916;19;1485;-44
2023/09/16 08:02:04;;;;;;;;;;;;;;;24.99;59.93;101426.00;7399480;19;1374;-52
2023/09/16 08:04:34;;;;;;;;;;;;;;;25.09;59.73;101433.13;7398428;19;1946;-44
2023/09/16 08:07:03;;;;;;;;;;;;;;;25.05;59.64;101426.34;7397947;19;1491;-44
2023/09/16 08:09:31;;;;;;;;;;;;;;;25.20;59.08;101427.44;7395798;19;1725;-44
2023/09/16 08:11:59;;;;;;;;;;;;;;;25.19;59.07;101417.66;7395196;19;1536;-44
2023/09/16 08:14:28;;;;;;;;;;;;;;;25.04;59.37;101421.94;7398081;19;1500;-43
2023/09/16 08:17:03;;;;;;;;;;;;;;;24.94;59.99;101420.19;7397100;19;1841;-44
2023/09/16 08:19:31;;;;;;;;;;;;;;;25.00;59.61;101424.13;7397304;19;1840;-44
2023/09/16 08:21:59;;;;;;;;;;;;;;;25.09;59.24;101425.88;7396240;19;1347;-44
2023/09/16 08:24:28;;;;;;;;;;;;;;;25.16;59.51;101432.34;7396041;19;1523;-44
2023/09/16 08:26:56;;;;;;;;;;;;;;;24.95;59.63;101435.44;7397085;19;1561;-44
2023/09/16 08:29:24;;;;;;;;;;;;;;;24.95;59.38;101438.13;7395963;19;1629;-44
2023/09/16 08:31:53;;;;;;;;;;;;;;;25.01;59.65;101428.53;7396233;19;1306;-44
2023/09/16 08:34:23;;;;;;;;;;;;;;;24.94;59.93;101433.72;7394569;19;1623;-44
2023/09/16 08:36:52;;;;;;;;;;;;;;;24.81;60.25;101438.72;7396286;19;1406;-44
2023/09/16 08:39:20;;;;;;;;;;;;;;;25.03;60.11;101434.63;7393833;19;1861;-44
2023/09/16 08:41:51;;;;;;;;;;;;;;;24.73;59.51;101357.50;7394153;19;1445;-44
2023/09/16 08:44:20;;;;;;;;;;;;;;;25.31;59.24;101429.09;7395936;19;1467;-44
2023/09/16 08:46:52;;;;;;;;;;;;;;;25.29;59.17;101421.13;7397286;19;1578;-43
2023/09/16 08:49:24;;;;;;;;;;;;;;;25.34;59.12;101435.00;7397116;19;1828;-43
2023/09/16 08:51:53;;;;;;;;;;;;;;;25.35;58.75;101434.00;7396726;19;1416;-44
2023/09/16 08:54:24;;;;;;;;;;;;;;;25.26;58.90;101432.25;7395022;19;1568;-44
2023/09/16 08:56:52;;;;;;;;;;;;;;;25.28;59.12;101435.66;7380042;19;1613;-43
2023/09/16 08:59:21;;;;;;;;;;;;;;;25.29;58.90;101434.66;7393083;19;1846;-43
2023/09/16 09:01:49;;;;;;;;;;;;;;;25.26;58.90;101432.25;7397504;19;1215;-43
2023/09/16 09:04:18;;;;;;;;;;;;;;;25.28;59.07;101438.34;7396397;19;1850;-44
2023/09/16 09:06:49;;;;;;;;;;;;;;;25.15;59.51;101446.88;7395616;19;1816;-44
2023/09/16 09:09:18;;;;;;;;;;;;;;;25.14;59.27;101449.75;7393227;19;1740;-44
2023/09/16 09:11:46;;;;;;;;;;;;;;;25.08;59.24;101453.09;7395234;19;1512;-44
2023/09/16 09:14:15;;;;;;;;;;;;;;;25.02;59.75;101439.19;7396792;19;1506;-44
2023/09/16 09:16:44;;;;;;;;;;;;;;;25.08;59.54;101440.41;7395569;19;1650;-44
2023/09/16 09:19:13;;;;;;;;;;;;;;;25.09;59.31;101435.84;7394053;19;1846;-44
2023/09/16 09:21:43;;;;;;;;;;;;;;;25.04;59.70;101444.44;7394575;19;1615;-43
2023/09/16 09:24:13;;;;;;;;;;;;;;;25.01;59.53;101440.22;7396698;19;1732;-44
2023/09/16 09:26:42;;;;;;;;;;;;;;;25.06;59.50;101433.47;7395721;19;1474;-43
2023/09/16 09:29:12;;;;;;;;;;;;;;;25.04;59.60;101440.88;7396492;19;1697;-44
2023/09/16 09:31:41;;;;;;;;;;;;;;;25.00;59.54;101432.25;7395003;19;1957;-44
2023/09/16 09:34:16;;;;;;;;;;;;;;;24.99;59.54;101434.09;7395017;19;1740;-44
2023/09/16 09:36:47;;;;;;;;;;;;;;;24.97;59.57;101435.28;7395187;19;1461;-44
2023/09/16 09:39:18;;;;;;;;;;;;;;;24.97;59.69;101433.41;7393525;19;1841;-43
2023/09/16 09:41:49;;;;;;;;;;;;;;;24.95;59.81;101411.06;7395552;19;1709;-44
2023/09/16 09:44:17;;;;;;;;;;;;;;;24.97;59.78;101429.88;7397589;19;1182;-44
2023/09/16 09:46:46;;;;;;;;;;;;;;;24.97;59.67;101435.28;7395613;19;1379;-43
2023/09/16 09:49:15;;;;;;;;;;;;;;;24.95;59.97;101427.31;7394634;19;1953;-43
2023/09/16 09:51:47;;;;;;;;;;;;;;;24.95;60.12;101413.78;7394833;19;1927;-44
2023/09/16 09:54:18;;;;;;;;;;;;;;;24.94;60.20;101411.22;7395237;19;1613;-43
2023/09/16 09:56:46;;;;;;;;;;;;;;;24.97;60.16;101417.19;7384223;19;1756;-44
2023/09/16 09:59:16;;;;;;;;;;;;;;;24.97;60.12;101427.16;7392697;19;1868;-44
2023/09/16 10:01:44;;;;;;;;;;;;;;;24.95;60.07;101415.66;7396045;19;1945;-44
2023/09/16 10:04:13;;;;;;;;;;;;;;;24.95;60.17;101424.59;7394725;19;1875;-44
2023/09/16 10:06:41;;;;;;;;;;;;;;;24.99;60.33;101420.56;7394265;19;1841;-44
2023/09/16 10:09:09;;;;;;;;;;;;;;;25.00;60.25;101406.03;7395117;19;1628;-44
2023/09/16 10:11:40;;;;;;;;;;;;;;;25.01;60.19;101406.91;7397714;19;1745;-44
2023/09/16 10:14:09;;;;;;;;;;;;;;;25.02;60.20;101419.41;7402335;19;1521;-43
2023/09/16 10:16:37;;;;;;;;;;;;;;;25.04;60.43;101414.69;7402623;19;1733;-43
2023/09/16 10:19:06;;;;;;;;;;;;;;;25.03;60.37;101413.00;7398970;19;1855;-44
2023/09/16 10:21:35;;;;;;;;;;;;;;;25.07;60.30;101405.38;7401182;19;1573;-44
2023/09/16 10:24:04;;;;;;;;;;;;;;;25.10;60.19;101402.38;7401280;19;1671;-44
2023/09/16 10:26:33;;;;;;;;;;;;;;;25.15;60.10;101409.00;7400300;19;1567;-43
2023/09/16 10:29:04;;;;;;;;;;;;;;;25.15;60.14;101391.91;7402404;19;1546;-43
2023/09/16 10:31:33;;;;;;;;;;;;;;;25.20;59.85;101401.22;7402463;19;1796;-43
2023/09/16 10:34:02;;;;;;;;;;;;;;;25.18;59.93;101391.56;7400962;19;1946;-43
2023/09/16 10:36:31;;;;;;;;;;;;;;;25.22;59.65;101389.44;7401892;19;1846;-44
2023/09/16 10:38:59;;;;;;;;;;;;;;;25.19;59.47;101377.88;7399755;19;1834;-44
2023/09/16 10:41:28;;;;;;;;;;;;;;;25.23;59.50;101378.47;7401234;19;1077;-44
2023/09/16 10:43:57;;;;;;;;;;;;;;;25.27;59.70;101398.78;7400803;19;1454;-44
2023/09/16 10:46:29;;;;;;;;;;;;;;;25.29;59.60;101383.22;7400753;19;1816;-43
2023/09/16 10:48:57;;;;;;;;;;;;;;;25.28;59.33;101367.97;7400031;19;1799;-43
2023/09/16 10:51:25;;;;;;;;;;;;;;;25.26;59.63;101369.16;7399747;19;1400;-44
2023/09/16 10:53:57;;;;;;;;;;;;;;;25.28;59.55;101365.25;7400533;19;1637;-44
2023/09/16 10:56:28;;;;;;;;;;;;;;;25.31;59.66;101380.34;7399932;19;1756;-44
2023/09/16 10:58:58;;;;;;;;;;;;;;;25.29;59.46;101366.13;7400245;19;1882;-43
2023/09/16 11:01:31;;;;;;;;;;;;;;;25.33;59.51;101372.91;7400992;19;1490;-43
2023/09/16 11:04:05;;;;;;;;;;;;;;;25.30;59.47;101357.81;7399148;19;1946;-44
2023/09/16 11:06:33;;;;;;;;;;;;;;;25.30;59.42;101352.41;7400914;19;1613;-43
2023/09/16 11:09:02;;;;;;;;;;;;;;;25.31;59.43;101351.41;7400083;19;1517;-43
2023/09/16 11:11:31;;;;;;;;;;;;;;;25.34;59.30;101361.91;7401063;19;1308;-43
2023/09/16 11:14:00;;;;;;;;;;;;;;;25.37;59.13;101353.47;7399789;19;1476;-44
2023/09/16 11:16:31;;;;;;;;;;;;;;;25.33;59.46;101343.97;7397596;19;1547;-44
2023/09/16 11:18:59;;;;;;;;;;;;;;;25.36;59.09;101351.75;7396699;19;1848;-44
2023/09/16 11:21:27;;;;;;;;;;;;;;;25.40;59.22;101341.44;7397988;19;1530;-43
2023/09/16 11:23:56;;;;;;;;;;;;;;;25.48;58.74;101343.34;7398074;19;1570;-44
2023/09/16 11:26:24;;;;;;;;;;;;;;;25.51;58.99;101348.44;7396925;19;1768;-44
2023/09/16 11:28:54;;;;;;;;;;;;;;;25.45;59.22;101347.25;7394476;19;1812;-44
2023/09/16 11:31:23;;;;;;;;;;;;;;;25.46;59.55;101342.66;7397091;19;1831;-45
2023/09/16 11:34:01;;;;;;;;;;;;;;;25.33;60.60;101322.31;7398659;19;1887;-44
2023/09/16 11:36:35;;;;;;;;;;;;;;;25.28;60.97;101343.59;7397975;19;1556;-44
2023/09/16 11:39:15;;;;;;;;;;;;;;;25.31;60.63;101324.34;7398526;19;1863;-43
2023/09/16 11:41:44;;;;;;;;;;;;;;;25.30;60.43;101308.25;7399390;19;1554;-45
2023/09/16 11:44:12;;;;;;;;;;;;;;;25.29;60.13;101307.41;7399826;19;1075;-44
2023/09/16 11:46:41;;;;;;;;;;;;;;;25.28;60.36;101315.69;7398870;19;1958;-45
2023/09/16 11:49:12;;;;;;;;;;;;;;;25.31;60.17;101329.75;7398680;19;1895;-43
2023/09/16 11:51:40;;;;;;;;;;;;;;;25.30;60.06;101325.34;7398704;19;1838;-44
2023/09/16 11:54:09;;;;;;;;;;;;;;;25.28;60.20;101319.25;7398750;19;1824;-44
2023/09/16 11:56:40;;;;;;;;;;;;;;;25.27;60.23;101312.16;7397825;19;1724;-43
2023/09/16 11:59:08;;;;;;;;;;;;;;;25.26;60.10;101309.59;7397059;19;1834;-43
2023/09/16 12:01:40;;;;;;;;;;;;;;;25.28;60.12;101313.00;7398646;19;1544;-43
2023/09/16 12:04:09;;;;;;;;;;;;;;;25.26;60.14;101317.72;7396594;19;1926;-44
2023/09/16 12:06:40;;;;;;;;;;;;;;;25.26;60.16;101310.44;7397967;19;1596;-43
2023/09/16 12:09:10;;;;;;;;;;;;;;;25.28;59.85;101302.16;7397958;19;1604;-44
2023/09/16 12:11:40;;;;;;;;;;;;;;;25.29;60.04;101301.16;7398108;19;1554;-43
2023/09/16 12:14:08;;;;;;;;;;;;;;;25.29;59.93;101303.88;7397434;19;1456;-43
2023/09/16 12:16:37;;;;;;;;;;;;;;;25.29;59.76;101302.00;7396275;19;1467;-43
2023/09/16 12:19:06;;;;;;;;;;;;;;;25.31;59.71;101315.38;7394980;19;1853;-44
2023/09/16 12:21:34;;;;;;;;;;;;;;;25.04;60.58;101298.31;7396407;19;1611;-43
2023/09/16 12:24:06;;;;;;;;;;;;;;;24.58;59.71;101313.97;7395506;19;1583;-44
2023/09/16 12:26:34;;;;;;;;;;;;;;;24.26;58.66;101304.59;7396564;19;1673;-43
2023/09/16 12:29:04;;;;;;;;;;;;;;;24.14;58.13;101312.09;7396945;19;1495;-44
2023/09/16 12:31:32;;;;;;;;;;;;;;;24.07;57.93;101316.41;7396835;19;1502;-44
2023/09/16 12:34:00;;;;;;;;;;;;;;;23.98;57.46;101311.97;7391899;19;1958;-44
2023/09/16 12:36:29;;;;;;;;;;;;;;;23.89;57.26;101321.00;7395354;19;1530;-43
2023/09/16 12:38:58;;;;;;;;;;;;;;;23.78;56.57;101317.53;7395134;19;1867;-43
2023/09/16 12:41:30;;;;;;;;;;;;;;;23.74;56.33;101321.50;7396984;19;1552;-44
2023/09/16 12:43:59;;;;;;;;;;;;;;;23.71;56.04;101307.44;7394027;19;1447;-44
2023/09/16 12:46:29;;;;;;;;;;;;;;;23.78;56.19;101309.41;7393605;19;1570;-43
2023/09/16 12:48:58;;;;;;;;;;;;;;;23.71;56.59;101308.28;7396391;19;1614;-43
2023/09/16 12:51:27;;;;;;;;;;;;;;;23.71;56.62;101319.09;7397096;19;1732;-43
2023/09/16 12:53:55;;;;;;;;;;;;;;;23.62;57.13;101325.44;7395951;19;1448;-44
2023/09/16 12:56:24;;;;;;;;;;;;;;;23.70;56.72;101306.59;7395580;19;1800;-43
2023/09/16 12:58:54;;;;;;;;;;;;;;;23.64;56.61;101299.13;7396867;19;1853;-43